sensor_id;sensor_type;location;lat;lon;timestamp;temperature;humidity
50738;DHT22;36703;48.154;17.126;2023-04-01T00:00:12;14.70;52.50
50738;DHT22;36703;48.154;17.126;2023-04-01T00:04:14;14.70;52.30
50738;DHT22;36703;48.154;17.126;2023-04-01T00:08:16;14.80;52.00
50738;DHT22;36703;48.154;17.126;2023-04-01T00:12:19;14.70;51.70
50738;DHT22;36703;48.154;17.126;2023-04-01T00:16:20;14.70;51.60
50738;DHT22;36703;48.154;17.126;2023-04-01T00:20:22;14.80;51.30
50738;DHT22;36703;48.154;17.126;2023-04-01T00:24:23;14.90;51.10
50738;DHT22;36703;48.154;17.126;2023-04-01T00:28:24;15.00;50.90
50738;DHT22;36703;48.154;17.126;2023-04-01T00:32:26;15.00;50.70
50738;DHT22;36703;48.154;17.126;2023-04-01T00:36:27;15.10;50.40
50738;DHT22;36703;48.154;17.126;2023-04-01T00:40:30;15.20;50.20
50738;DHT22;36703;48.154;17.126;2023-04-01T00:44:33;15.30;50.10
50738;DHT22;36703;48.154;17.126;2023-04-01T00:48:36;15.30;49.80
50738;DHT22;36703;48.154;17.126;2023-04-01T00:52:48;15.30;49.60
50738;DHT22;36703;48.154;17.126;2023-04-01T00:57:09;15.40;49.50
50738;DHT22;36703;48.154;17.126;2023-04-01T01:01:13;15.40;49.30
50738;DHT22;36703;48.154;17.126;2023-04-01T01:05:16;15.50;49.10
50738;DHT22;36703;48.154;17.126;2023-04-01T01:13:30;15.60;48.90
50738;DHT22;36703;48.154;17.126;2023-04-01T01:21:46;15.60;48.60
50738;DHT22;36703;48.154;17.126;2023-04-01T01:34:19;15.60;48.40
50738;DHT22;36703;48.154;17.126;2023-04-01T01:38:23;15.60;48.10
50738;DHT22;36703;48.154;17.126;2023-04-01T01:42:35;15.60;48.20
50738;DHT22;36703;48.154;17.126;2023-04-01T01:46:39;15.60;48.10
50738;DHT22;36703;48.154;17.126;2023-04-01T01:50:43;15.60;48.00
50738;DHT22;36703;48.154;17.126;2023-04-01T01:54:47;15.60;47.70
50738;DHT22;36703;48.154;17.126;2023-04-01T01:58:50;15.40;47.70
50738;DHT22;36703;48.154;17.126;2023-04-01T02:02:55;15.40;47.80
50738;DHT22;36703;48.154;17.126;2023-04-01T02:07:02;15.40;47.80
50738;DHT22;36703;48.154;17.126;2023-04-01T02:11:07;15.30;47.70
50738;DHT22;36703;48.154;17.126;2023-04-01T02:15:14;15.30;47.70
50738;DHT22;36703;48.154;17.126;2023-04-01T02:19:18;15.30;47.70
50738;DHT22;36703;48.154;17.126;2023-04-01T02:23:24;15.30;47.60
50738;DHT22;36703;48.154;17.126;2023-04-01T02:27:25;15.20;47.60
50738;DHT22;36703;48.154;17.126;2023-04-01T02:31:27;15.30;47.70
50738;DHT22;36703;48.154;17.126;2023-04-01T02:35:28;15.30;47.60
50738;DHT22;36703;48.154;17.126;2023-04-01T02:39:30;15.40;47.50
50738;DHT22;36703;48.154;17.126;2023-04-01T02:43:31;15.50;47.40
50738;DHT22;36703;48.154;17.126;2023-04-01T02:47:33;15.50;47.40
50738;DHT22;36703;48.154;17.126;2023-04-01T02:51:34;15.50;47.30
50738;DHT22;36703;48.154;17.126;2023-04-01T02:55:36;15.60;47.30
50738;DHT22;36703;48.154;17.126;2023-04-01T02:59:37;15.60;47.30
50738;DHT22;36703;48.154;17.126;2023-04-01T03:03:38;15.60;47.20
50738;DHT22;36703;48.154;17.126;2023-04-01T03:07:40;15.60;47.20
50738;DHT22;36703;48.154;17.126;2023-04-01T03:11:41;15.50;47.20
50738;DHT22;36703;48.154;17.126;2023-04-01T03:15:43;15.50;47.30
50738;DHT22;36703;48.154;17.126;2023-04-01T03:19:44;15.50;47.30
50738;DHT22;36703;48.154;17.126;2023-04-01T03:23:47;15.40;47.20
50738;DHT22;36703;48.154;17.126;2023-04-01T03:27:48;15.40;47.30
50738;DHT22;36703;48.154;17.126;2023-04-01T03:31:49;15.40;47.30
50738;DHT22;36703;48.154;17.126;2023-04-01T03:35:51;15.30;47.40
50738;DHT22;36703;48.154;17.126;2023-04-01T03:39:54;15.30;47.40
50738;DHT22;36703;48.154;17.126;2023-04-01T03:43:55;15.30;47.30
50738;DHT22;36703;48.154;17.126;2023-04-01T03:47:56;15.30;47.20
50738;DHT22;36703;48.154;17.126;2023-04-01T03:51:58;15.40;47.20
50738;DHT22;36703;48.154;17.126;2023-04-01T03:56:03;15.30;47.20
50738;DHT22;36703;48.154;17.126;2023-04-01T04:00:09;15.40;47.20
50738;DHT22;36703;48.154;17.126;2023-04-01T04:04:14;15.30;47.10
50738;DHT22;36703;48.154;17.126;2023-04-01T04:08:17;15.30;47.20
50738;DHT22;36703;48.154;17.126;2023-04-01T04:12:19;15.30;47.20
50738;DHT22;36703;48.154;17.126;2023-04-01T04:16:20;15.30;47.20
50738;DHT22;36703;48.154;17.126;2023-04-01T04:20:28;15.30;47.20
50738;DHT22;36703;48.154;17.126;2023-04-01T04:24:30;15.30;47.10
50738;DHT22;36703;48.154;17.126;2023-04-01T04:28:37;15.40;47.20
50738;DHT22;36703;48.154;17.126;2023-04-01T04:32:39;15.40;47.10
50738;DHT22;36703;48.154;17.126;2023-04-01T04:36:41;15.40;47.10
50738;DHT22;36703;48.154;17.126;2023-04-01T04:40:43;15.40;47.00
50738;DHT22;36703;48.154;17.126;2023-04-01T04:44:45;15.40;47.00
50738;DHT22;36703;48.154;17.126;2023-04-01T04:48:47;15.50;47.10
50738;DHT22;36703;48.154;17.126;2023-04-01T04:52:50;15.50;47.00
50738;DHT22;36703;48.154;17.126;2023-04-01T04:56:52;15.50;47.00
50738;DHT22;36703;48.154;17.126;2023-04-01T05:00:55;15.40;47.10
50738;DHT22;36703;48.154;17.126;2023-04-01T05:05:02;15.30;47.20
50738;DHT22;36703;48.154;17.126;2023-04-01T05:09:03;15.10;47.30
50738;DHT22;36703;48.154;17.126;2023-04-01T05:13:05;15.10;47.50
50738;DHT22;36703;48.154;17.126;2023-04-01T05:17:10;15.00;47.60
50738;DHT22;36703;48.154;17.126;2023-04-01T05:21:13;15.00;47.70
50738;DHT22;36703;48.154;17.126;2023-04-01T05:25:15;14.90;47.80
50738;DHT22;36703;48.154;17.126;2023-04-01T05:29:17;14.90;47.70
50738;DHT22;36703;48.154;17.126;2023-04-01T05:33:21;14.90;47.80
50738;DHT22;36703;48.154;17.126;2023-04-01T05:37:23;14.90;47.80
50738;DHT22;36703;48.154;17.126;2023-04-01T05:41:24;14.80;47.80
50738;DHT22;36703;48.154;17.126;2023-04-01T05:45:26;14.80;47.90
50738;DHT22;36703;48.154;17.126;2023-04-01T05:49:46;14.80;48.00
50738;DHT22;36703;48.154;17.126;2023-04-01T05:53:47;14.80;48.00
50738;DHT22;36703;48.154;17.126;2023-04-01T05:57:49;14.80;48.00
50738;DHT22;36703;48.154;17.126;2023-04-01T06:01:50;14.80;48.00
50738;DHT22;36703;48.154;17.126;2023-04-01T06:05:52;14.80;47.90
50738;DHT22;36703;48.154;17.126;2023-04-01T06:09:53;14.90;47.90
50738;DHT22;36703;48.154;17.126;2023-04-01T06:18:10;15.10;47.70
50738;DHT22;36703;48.154;17.126;2023-04-01T06:26:52;15.30;47.40
50738;DHT22;36703;48.154;17.126;2023-04-01T06:57:55;16.00;46.20
50738;DHT22;36703;48.154;17.126;2023-04-01T07:02:16;16.10;46.20
50738;DHT22;36703;48.154;17.126;2023-04-01T07:06:36;16.20;45.90
50738;DHT22;36703;48.154;17.126;2023-04-01T07:15:24;16.30;45.70
50738;DHT22;36703;48.154;17.126;2023-04-01T07:19:45;16.30;45.60
50738;DHT22;36703;48.154;17.126;2023-04-01T07:23:50;16.40;45.50
50738;DHT22;36703;48.154;17.126;2023-04-01T07:28:15;16.50;45.40
50738;DHT22;36703;48.154;17.126;2023-04-01T07:32:32;16.50;45.20
50738;DHT22;36703;48.154;17.126;2023-04-01T07:36:47;16.50;45.10
50738;DHT22;36703;48.154;17.126;2023-04-01T07:45:03;16.50;45.00
50738;DHT22;36703;48.154;17.126;2023-04-01T07:53:49;16.50;44.80
50738;DHT22;36703;48.154;17.126;2023-04-01T08:02:14;16.60;44.50
50738;DHT22;36703;48.154;17.126;2023-04-01T08:10:46;16.80;44.30
50738;DHT22;36703;48.154;17.126;2023-04-01T08:15:33;16.90;44.20
50738;DHT22;36703;48.154;17.126;2023-04-01T08:24:11;16.90;43.90
50738;DHT22;36703;48.154;17.126;2023-04-01T08:28:23;17.10;43.70
50738;DHT22;36703;48.154;17.126;2023-04-01T08:32:40;17.20;43.40
50738;DHT22;36703;48.154;17.126;2023-04-01T08:36:47;17.30;43.40
50738;DHT22;36703;48.154;17.126;2023-04-01T08:40:57;17.50;43.10
50738;DHT22;36703;48.154;17.126;2023-04-01T08:49:56;17.80;42.60
50738;DHT22;36703;48.154;17.126;2023-04-01T08:59:21;18.00;42.10
50738;DHT22;36703;48.154;17.126;2023-04-01T09:04:24;18.00;42.00
50738;DHT22;36703;48.154;17.126;2023-04-01T09:17:28;18.20;41.50
50738;DHT22;36703;48.154;17.126;2023-04-01T09:39:11;18.80;40.80
50738;DHT22;36703;48.154;17.126;2023-04-01T09:43:39;18.80;40.70
50738;DHT22;36703;48.154;17.126;2023-04-01T10:05:33;18.40;41.00
50738;DHT22;36703;48.154;17.126;2023-04-01T10:23:20;18.40;41.00
50738;DHT22;36703;48.154;17.126;2023-04-01T10:31:49;18.50;40.80
50738;DHT22;36703;48.154;17.126;2023-04-01T10:45:35;18.60;40.60
50738;DHT22;36703;48.154;17.126;2023-04-01T10:59:31;18.40;40.40
50738;DHT22;36703;48.154;17.126;2023-04-01T11:13:10;18.50;40.50
50738;DHT22;36703;48.154;17.126;2023-04-01T11:17:42;18.80;40.00
50738;DHT22;36703;48.154;17.126;2023-04-01T11:22:29;19.30;39.80
50738;DHT22;36703;48.154;17.126;2023-04-01T11:35:52;19.50;38.20
50738;DHT22;36703;48.154;17.126;2023-04-01T11:40:36;19.30;38.50
50738;DHT22;36703;48.154;17.126;2023-04-01T11:45:36;19.10;38.70
50738;DHT22;36703;48.154;17.126;2023-04-01T11:49:53;19.00;38.90
50738;DHT22;36703;48.154;17.126;2023-04-01T12:03:30;19.50;38.30
50738;DHT22;36703;48.154;17.126;2023-04-01T12:33:52;24.70;32.50
50738;DHT22;36703;48.154;17.126;2023-04-01T12:38:03;24.70;31.10
50738;DHT22;36703;48.154;17.126;2023-04-01T12:59:38;21.30;33.90
50738;DHT22;36703;48.154;17.126;2023-04-01T13:03:59;21.40;33.90
50738;DHT22;36703;48.154;17.126;2023-04-01T13:12:39;21.20;33.70
50738;DHT22;36703;48.154;17.126;2023-04-01T13:16:57;20.80;33.70
50738;DHT22;36703;48.154;17.126;2023-04-01T13:21:18;20.60;33.90
50738;DHT22;36703;48.154;17.126;2023-04-01T13:38:38;20.70;33.90
50738;DHT22;36703;48.154;17.126;2023-04-01T13:42:46;20.70;33.70
50738;DHT22;36703;48.154;17.126;2023-04-01T13:47:12;21.50;33.50
50738;DHT22;36703;48.154;17.126;2023-04-01T13:56:02;25.00;30.90
50738;DHT22;36703;48.154;17.126;2023-04-01T14:13:18;22.10;32.60
50738;DHT22;36703;48.154;17.126;2023-04-01T14:17:39;21.70;32.90
50738;DHT22;36703;48.154;17.126;2023-04-01T14:48:28;20.30;33.70
50738;DHT22;36703;48.154;17.126;2023-04-01T14:52:37;20.30;33.90
50738;DHT22;36703;48.154;17.126;2023-04-01T14:56:44;20.20;33.90
50738;DHT22;36703;48.154;17.126;2023-04-01T15:00:58;20.20;34.00
50738;DHT22;36703;48.154;17.126;2023-04-01T15:14:43;20.10;34.20
50738;DHT22;36703;48.154;17.126;2023-04-01T15:31:40;20.00;34.60
50738;DHT22;36703;48.154;17.126;2023-04-01T15:36:26;20.00;34.70
50738;DHT22;36703;48.154;17.126;2023-04-01T15:40:31;19.80;34.80
50738;DHT22;36703;48.154;17.126;2023-04-01T15:57:21;19.50;35.40
50738;DHT22;36703;48.154;17.126;2023-04-01T16:10:21;19.60;35.50
50738;DHT22;36703;48.154;17.126;2023-04-01T16:35:49;19.50;35.80
50738;DHT22;36703;48.154;17.126;2023-04-01T16:44:28;19.50;36.00
50738;DHT22;36703;48.154;17.126;2023-04-01T16:48:36;19.50;36.00
50738;DHT22;36703;48.154;17.126;2023-04-01T16:52:59;19.40;36.00
50738;DHT22;36703;48.154;17.126;2023-04-01T17:01:16;19.40;36.10
50738;DHT22;36703;48.154;17.126;2023-04-01T17:15:01;19.40;36.20
50738;DHT22;36703;48.154;17.126;2023-04-01T17:19:48;19.30;36.20
50738;DHT22;36703;48.154;17.126;2023-04-01T17:23:52;19.30;36.20
50738;DHT22;36703;48.154;17.126;2023-04-01T17:45:21;18.80;36.70
50738;DHT22;36703;48.154;17.126;2023-04-01T17:58:00;18.60;37.00
50738;DHT22;36703;48.154;17.126;2023-04-01T18:02:25;18.50;37.10
50738;DHT22;36703;48.154;17.126;2023-04-01T18:15:27;18.40;37.60
50738;DHT22;36703;48.154;17.126;2023-04-01T18:32:54;18.10;38.60
50738;DHT22;36703;48.154;17.126;2023-04-01T18:37:02;18.00;38.80
50738;DHT22;36703;48.154;17.126;2023-04-01T18:46:00;18.00;39.00
50738;DHT22;36703;48.154;17.126;2023-04-01T18:50:23;17.90;39.30
50738;DHT22;36703;48.154;17.126;2023-04-01T19:02:48;17.70;39.70
50738;DHT22;36703;48.154;17.126;2023-04-01T19:06:55;17.70;39.90
50738;DHT22;36703;48.154;17.126;2023-04-01T19:11:09;17.60;40.00
50738;DHT22;36703;48.154;17.126;2023-04-01T19:15:14;17.60;40.20
50738;DHT22;36703;48.154;17.126;2023-04-01T19:19:46;17.60;40.40
50738;DHT22;36703;48.154;17.126;2023-04-01T19:28:20;17.40;40.90
50738;DHT22;36703;48.154;17.126;2023-04-01T19:37:11;17.30;41.20
50738;DHT22;36703;48.154;17.126;2023-04-01T19:55:02;17.00;42.10
50738;DHT22;36703;48.154;17.126;2023-04-01T19:59:10;16.90;42.40
50738;DHT22;36703;48.154;17.126;2023-04-01T20:08:00;16.90;42.50
50738;DHT22;36703;48.154;17.126;2023-04-01T20:12:09;16.90;42.60
50738;DHT22;36703;48.154;17.126;2023-04-01T20:20:57;16.80;42.70
50738;DHT22;36703;48.154;17.126;2023-04-01T20:25:05;16.80;42.90
50738;DHT22;36703;48.154;17.126;2023-04-01T20:34:09;16.60;43.10
50738;DHT22;36703;48.154;17.126;2023-04-01T20:38:39;16.60;43.30
50738;DHT22;36703;48.154;17.126;2023-04-01T20:51:24;16.50;43.60
50738;DHT22;36703;48.154;17.126;2023-04-01T20:55:30;16.40;43.70
50738;DHT22;36703;48.154;17.126;2023-04-01T21:20:49;16.30;44.30
50738;DHT22;36703;48.154;17.126;2023-04-01T21:42:38;16.10;44.90
50738;DHT22;36703;48.154;17.126;2023-04-01T21:46:54;16.00;45.00
50738;DHT22;36703;48.154;17.126;2023-04-01T22:03:55;15.90;45.30
50738;DHT22;36703;48.154;17.126;2023-04-01T22:08:24;15.90;45.40
50738;DHT22;36703;48.154;17.126;2023-04-01T22:21:09;15.80;45.60
50738;DHT22;36703;48.154;17.126;2023-04-01T22:25:15;15.80;45.70
50738;DHT22;36703;48.154;17.126;2023-04-01T22:29:23;15.80;45.80
50738;DHT22;36703;48.154;17.126;2023-04-01T22:37:55;15.90;45.90
50738;DHT22;36703;48.154;17.126;2023-04-01T22:46:32;15.80;45.90
50738;DHT22;36703;48.154;17.126;2023-04-01T22:54:53;15.80;46.20
50738;DHT22;36703;48.154;17.126;2023-04-01T22:59:00;15.70;46.20
50738;DHT22;36703;48.154;17.126;2023-04-01T23:03:12;15.80;46.20
50738;DHT22;36703;48.154;17.126;2023-04-01T23:08:19;15.80;46.20
50738;DHT22;36703;48.154;17.126;2023-04-01T23:11:51;15.80;46.20
50738;DHT22;36703;48.154;17.126;2023-04-01T23:15:56;15.80;46.80
50738;DHT22;36703;48.154;17.126;2023-04-01T23:24:31;15.80;46.20
50738;DHT22;36703;48.154;17.126;2023-04-01T23:32:49;15.80;46.40
50738;DHT22;36703;48.154;17.126;2023-04-01T23:36:52;15.80;46.40
50738;DHT22;36703;48.154;17.126;2023-04-01T23:40:55;15.70;46.50
50738;DHT22;36703;48.154;17.126;2023-04-01T23:44:57;15.70;46.50
50738;DHT22;36703;48.154;17.126;2023-04-01T23:48:59;15.70;46.50
50738;DHT22;36703;48.154;17.126;2023-04-01T23:53:03;15.70;46.60
50738;DHT22;36703;48.154;17.126;2023-04-01T23:57:11;15.70;46.60
